createdAt,value
2019-05-22T04:04:42.683Z,32.00
2019-05-22T04:09:42.609Z,32.00
2019-05-22T04:13:42.563Z,40.00
2019-05-22T04:14:42.621Z,44.00
2019-05-22T04:16:42.531Z,48.00
2019-05-22T04:23:04.847Z,68.00
2019-05-22T04:31:04.749Z,88.00
2019-05-22T04:33:04.730Z,92.00
2019-05-22T04:35:04.699Z,92.00
2019-05-22T04:38:04.672Z,96.00
2019-05-22T04:40:04.653Z,100.00
2019-05-22T04:41:04.631Z,100.00
2019-05-22T04:42:04.632Z,92.00
2019-05-22T04:43:04.612Z,100.00
2019-05-22T04:48:04.550Z,108.00
2019-05-22T04:49:04.552Z,100.00
2019-05-22T04:50:07.919Z,100.00
2019-05-22T04:52:04.505Z,104.00
2019-05-22T04:54:04.479Z,108.00
2019-05-22T04:55:04.475Z,108.00
2019-05-22T04:56:04.470Z,116.00
2019-05-22T04:57:04.462Z,116.00
2019-05-22T04:58:04.453Z,120.00
2019-05-22T04:59:04.477Z,128.00
2019-05-22T05:00:04.427Z,132.00
2019-05-22T05:01:04.403Z,136.00
2019-05-22T05:02:04.398Z,148.00
2019-05-22T05:03:04.381Z,140.00
2019-05-22T05:04:04.376Z,140.00
2019-05-22T05:05:04.358Z,136.00
2019-05-22T05:06:06.907Z,136.00
2019-05-22T05:07:04.333Z,140.00
2019-05-22T05:08:04.322Z,148.00
2019-05-22T05:09:04.803Z,160.00
2019-05-22T05:10:04.309Z,160.00
2019-05-22T05:11:04.299Z,160.00
2019-05-22T05:12:04.277Z,164.00
2019-05-22T05:14:04.276Z,184.00
2019-05-22T05:15:04.244Z,180.00
2019-05-22T05:17:04.263Z,196.00
2019-05-22T05:18:04.221Z,204.00
2019-05-22T05:19:04.218Z,208.00
2019-05-22T05:20:04.195Z,216.00
2019-05-22T05:21:04.226Z,228.00
2019-05-22T05:22:04.206Z,236.00
2019-05-22T05:23:04.165Z,240.00
2019-05-22T05:24:04.147Z,244.00
2019-05-22T05:25:04.147Z,244.00
2019-05-22T05:26:04.170Z,248.00
2019-05-22T05:27:04.112Z,244.00
2019-05-22T05:28:04.117Z,260.00
2019-05-22T05:29:04.092Z,256.00
2019-05-22T05:30:04.080Z,260.00
2019-05-22T05:31:04.058Z,260.00
2019-05-22T05:32:04.056Z,280.00
2019-05-22T05:33:04.042Z,292.00
2019-05-22T05:34:04.038Z,296.00
2019-05-22T05:36:04.021Z,308.00
2019-05-22T05:37:03.996Z,320.00
2019-05-22T05:38:03.995Z,332.00
2019-05-22T05:39:03.975Z,344.00
2019-05-22T05:40:03.963Z,348.00
2019-05-22T05:41:03.945Z,356.00
2019-05-22T05:42:03.971Z,352.00
2019-05-22T05:43:04.951Z,368.00
2019-05-22T05:45:03.911Z,372.00
2019-05-22T05:46:03.895Z,380.00
2019-05-22T05:47:03.886Z,368.00
2019-05-22T05:49:03.862Z,360.00
2019-05-22T05:50:03.853Z,360.00
2019-05-22T05:51:03.830Z,348.00
2019-05-22T05:52:03.834Z,340.00
2019-05-22T05:53:03.826Z,328.00
2019-05-22T05:54:04.053Z,332.00
2019-05-22T05:55:03.800Z,328.00
2019-05-22T05:56:03.783Z,332.00
2019-05-22T05:57:03.771Z,336.00
2019-05-22T05:58:03.754Z,340.00
2019-05-22T05:59:03.761Z,340.00
2019-05-22T06:00:03.729Z,340.00
2019-05-22T06:01:03.740Z,356.00
2019-05-22T06:02:03.710Z,356.00
2019-05-22T06:03:03.713Z,368.00
2019-05-22T06:04:03.702Z,400.00
2019-05-22T06:05:03.690Z,436.00
2019-05-22T06:06:03.662Z,400.00
2019-05-22T06:07:03.734Z,384.00
2019-05-22T06:08:03.920Z,392.00
2019-05-22T06:09:03.635Z,424.00
2019-05-22T06:10:03.734Z,444.00
2019-05-22T06:11:03.662Z,444.00
2019-05-22T06:13:05.583Z,496.00
2019-05-22T06:14:03.574Z,520.00
2019-05-22T06:14:21.244Z,472.00
2019-05-22T06:15:05.858Z,516.00
2019-05-22T06:16:03.556Z,520.00
2019-05-22T06:17:03.594Z,536.00
2019-05-22T06:18:03.555Z,560.00
2019-05-22T06:19:03.524Z,572.00
2019-05-22T06:20:03.530Z,556.00
2019-05-22T06:21:04.612Z,568.00
2019-05-22T06:22:03.491Z,592.00
2019-05-22T06:23:03.496Z,588.00
2019-05-22T06:24:03.487Z,592.00
2019-05-22T06:25:03.816Z,584.00
2019-05-22T06:26:03.456Z,556.00
2019-05-22T06:27:03.443Z,556.00
2019-05-22T06:28:03.421Z,536.00
2019-05-22T06:29:03.422Z,528.00
2019-05-22T06:30:03.438Z,544.00
2019-05-22T06:31:03.431Z,548.00
2019-05-22T06:32:06.441Z,556.00
2019-05-22T06:33:03.386Z,552.00
2019-05-22T06:34:03.358Z,564.00
2019-05-22T06:35:03.348Z,568.00
2019-05-22T06:36:03.339Z,552.00
2019-05-22T06:37:03.313Z,544.00
2019-05-22T06:38:03.299Z,544.00
2019-05-22T06:39:03.380Z,572.00
2019-05-22T06:40:03.299Z,564.00
2019-05-22T06:41:03.293Z,552.00
2019-05-22T06:42:03.278Z,580.00
2019-05-22T06:43:03.252Z,596.00
2019-05-22T06:44:03.269Z,608.00
2019-05-22T06:45:04.213Z,604.00
2019-05-22T06:46:03.220Z,592.00
2019-05-22T06:47:03.236Z,580.00
2019-05-22T06:48:03.203Z,584.00
2019-05-22T06:49:03.188Z,580.00
2019-05-22T06:50:03.175Z,604.00
2019-05-22T06:51:18.321Z,616.00
2019-05-22T06:52:25.496Z,608.00
2019-05-22T06:53:25.467Z,616.00
2019-05-22T06:54:25.480Z,652.00
2019-05-22T06:55:25.443Z,680.00
2019-05-22T06:56:25.453Z,696.00
2019-05-22T06:57:25.444Z,676.00
2019-05-22T06:58:25.422Z,644.00
2019-05-22T06:59:25.415Z,652.00
2019-05-22T07:00:25.384Z,684.00
2019-05-22T07:01:25.388Z,688.00
2019-05-22T07:02:25.380Z,692.00
2019-05-22T07:03:25.356Z,680.00
2019-05-22T07:04:26.329Z,664.00
2019-05-22T07:05:25.340Z,664.00
2019-05-22T07:06:25.307Z,676.00
2019-05-22T07:07:25.292Z,712.00
2019-05-22T07:08:25.312Z,732.00
2019-05-22T07:09:25.286Z,752.00
2019-05-22T07:10:25.291Z,760.00
2019-05-22T07:11:25.269Z,764.00
2019-05-22T07:12:25.262Z,792.00
2019-05-22T07:13:25.239Z,784.00
2019-05-22T07:14:25.208Z,780.00
2019-05-22T07:15:25.238Z,788.00
2019-05-22T07:16:25.227Z,780.00
2019-05-22T07:17:25.206Z,808.00
2019-05-22T07:18:25.250Z,840.00
2019-05-22T07:19:25.211Z,848.00
2019-05-22T07:20:25.197Z,832.00
2019-05-22T07:21:33.562Z,812.00
2019-05-22T07:22:47.323Z,796.00
2019-05-22T07:23:47.307Z,816.00
2019-05-22T07:24:47.493Z,812.00
2019-05-22T07:25:47.327Z,796.00
2019-05-22T07:26:47.279Z,812.00
2019-05-22T07:27:47.267Z,796.00
2019-05-22T07:28:47.266Z,768.00
2019-05-22T07:29:47.264Z,756.00
2019-05-22T07:30:47.208Z,764.00
2019-05-22T07:31:47.211Z,812.00
2019-05-22T07:32:47.201Z,912.00
2019-05-22T07:33:47.177Z,976.00
2019-05-22T07:34:47.177Z,1020.00
2019-05-22T07:36:07.893Z,1080.00
2019-05-22T07:37:09.472Z,1140.00
2019-05-22T07:38:09.479Z,1148.00
2019-05-22T07:39:09.446Z,1128.00
2019-05-22T07:40:09.434Z,1144.00
2019-05-22T07:41:09.817Z,1152.00
2019-05-22T07:42:09.418Z,1132.00
2019-05-22T07:43:09.406Z,1096.00
2019-05-22T07:44:09.413Z,1088.00
2019-05-22T07:45:09.376Z,1096.00
2019-05-22T07:46:09.375Z,1132.00
2019-05-22T07:47:09.364Z,1212.00
2019-05-22T07:48:09.759Z,1228.00
2019-05-22T07:49:09.344Z,1228.00
2019-05-22T07:50:10.461Z,1212.00
2019-05-22T07:51:09.396Z,1180.00
2019-05-22T07:52:09.289Z,1144.00
2019-05-22T07:53:09.291Z,1124.00
2019-05-22T07:54:09.272Z,1148.00
2019-05-22T07:55:09.268Z,1144.00
2019-05-22T07:56:09.251Z,1140.00
2019-05-22T07:57:09.240Z,1168.00
2019-05-22T07:58:09.236Z,1228.00
2019-05-22T07:59:10.629Z,1260.00
2019-05-22T08:00:10.290Z,1252.00
2019-05-22T08:01:09.634Z,1280.00
2019-05-22T08:02:09.195Z,1280.00
2019-05-22T08:03:09.182Z,1260.00
2019-05-22T08:04:09.161Z,1236.00
2019-05-22T08:05:09.157Z,1220.00
2019-05-22T08:06:09.147Z,1228.00
2019-05-22T08:07:09.144Z,1208.00
2019-05-22T08:08:10.526Z,1220.00
2019-05-22T08:09:09.192Z,1248.00
2019-05-22T08:10:09.138Z,1244.00
2019-05-22T08:11:09.164Z,1288.00
2019-05-22T08:12:09.130Z,1360.00
2019-05-22T08:13:09.069Z,1376.00
2019-05-22T08:14:09.057Z,1368.00
2019-05-22T08:15:09.039Z,1464.00
2019-05-22T08:16:09.108Z,1576.00
2019-05-22T08:17:09.024Z,1592.00
2019-05-22T08:18:09.158Z,1596.00
2019-05-22T08:19:09.009Z,1576.00
2019-05-22T08:20:08.997Z,1572.00
2019-05-22T08:21:09.010Z,1580.00
2019-05-22T08:22:08.969Z,1532.00
2019-05-22T08:23:08.967Z,1480.00
2019-05-22T08:24:08.946Z,1428.00
2019-05-22T08:25:08.935Z,1388.00
2019-05-22T08:26:08.932Z,1416.00
2019-05-22T08:27:08.921Z,1448.00
2019-05-22T08:28:08.902Z,1492.00
2019-05-22T08:29:08.921Z,1548.00
2019-05-22T08:30:08.878Z,1576.00
2019-05-22T08:31:08.906Z,1732.00
2019-05-22T08:32:08.898Z,1988.00
2019-05-22T08:33:08.855Z,2076.00
2019-05-22T08:34:08.826Z,2068.00
2019-05-22T08:35:08.824Z,1980.00
2019-05-22T08:36:08.834Z,1844.00
2019-05-22T08:37:08.807Z,1768.00
2019-05-22T08:38:08.795Z,1756.00
2019-05-22T08:39:08.800Z,1756.00
2019-05-22T08:40:08.767Z,1740.00
2019-05-22T08:41:08.860Z,1764.00
2019-05-22T08:42:10.158Z,1800.00
2019-05-22T08:43:08.744Z,1880.00
2019-05-22T08:44:17.718Z,1972.00
2019-05-22T08:45:59.821Z,2060.00
2019-05-22T08:46:59.813Z,2008.00
2019-05-22T08:47:59.779Z,1916.00
2019-05-22T08:48:59.784Z,1892.00
2019-05-22T08:49:59.767Z,1932.00
2019-05-22T08:50:59.739Z,1984.00
2019-05-22T08:51:59.783Z,2096.00
2019-05-22T08:52:59.727Z,2196.00
2019-05-22T08:53:59.745Z,2340.00
2019-05-22T08:54:59.695Z,2400.00
2019-05-22T08:55:59.730Z,2556.00
2019-05-22T08:56:59.691Z,2588.00
2019-05-22T08:57:59.672Z,2540.00
2019-05-22T08:58:59.662Z,2452.00
2019-05-22T08:59:59.633Z,2460.00
2019-05-22T09:00:59.813Z,2460.00
2019-05-22T09:01:59.628Z,2304.00
2019-05-22T09:02:59.608Z,2360.00
2019-05-22T09:03:59.627Z,2416.00
2019-05-22T09:04:59.582Z,2464.00
2019-05-22T09:05:59.663Z,2480.00
2019-05-22T09:06:59.573Z,2460.00
2019-05-22T09:07:59.607Z,2528.00
2019-05-22T09:08:59.559Z,2580.00
2019-05-22T09:09:59.530Z,2608.00
2019-05-22T09:10:59.515Z,2680.00
2019-05-22T09:11:59.516Z,2616.00
2019-05-22T09:12:59.523Z,2368.00
2019-05-22T09:13:59.554Z,2100.00
2019-05-22T09:31:41.406Z,2928.00
2019-05-22T09:32:41.404Z,2900.00
2019-05-22T09:33:41.469Z,2764.00
2019-05-22T09:34:41.365Z,2776.00
2019-05-22T09:35:41.541Z,2808.00
2019-05-22T09:36:41.369Z,2952.00
2019-05-22T09:37:41.339Z,3036.00
2019-05-22T09:38:41.465Z,3180.00
2019-05-22T09:39:41.319Z,3140.00
2019-05-22T09:40:41.321Z,2984.00
2019-05-22T09:41:41.301Z,3056.00
2019-05-22T09:42:41.278Z,3116.00
2019-05-22T09:43:41.262Z,2992.00
2019-05-22T09:44:41.265Z,2952.00
2019-05-22T09:45:41.261Z,2988.00
2019-05-22T09:46:41.250Z,3164.00
2019-05-22T09:47:41.219Z,3264.00
2019-05-22T09:48:41.215Z,3216.00
2019-05-22T09:49:41.190Z,3116.00
2019-05-22T09:50:41.208Z,3076.00
2019-05-22T09:51:41.188Z,3072.00
2019-05-22T09:52:56.375Z,3036.00
2019-05-22T09:54:04.879Z,2640.00
2019-05-22T09:55:03.755Z,2764.00
2019-05-22T09:56:03.487Z,2932.00
2019-05-22T09:57:03.469Z,3096.00
2019-05-22T09:58:03.455Z,3204.00
2019-05-22T09:59:04.430Z,3220.00
2019-05-22T10:00:03.416Z,3132.00
2019-05-22T10:01:04.431Z,3028.00
2019-05-22T10:02:04.793Z,2920.00
2019-05-22T10:03:06.474Z,2900.00
2019-05-22T10:04:03.443Z,2972.00
2019-05-22T10:05:03.422Z,2816.00
2019-05-22T10:06:03.468Z,2744.00
2019-05-22T10:07:03.359Z,2900.00
2019-05-22T10:08:03.364Z,2964.00
2019-05-22T10:09:03.327Z,2780.00
2019-05-22T10:10:03.314Z,2756.00
2019-05-22T10:11:03.322Z,2804.00
2019-05-22T10:12:03.279Z,2784.00
2019-05-22T10:13:03.310Z,2512.00
2019-05-22T10:14:03.284Z,2600.00
2019-05-22T10:15:04.211Z,2568.00
2019-05-22T10:16:03.246Z,2380.00
2019-05-22T10:17:03.278Z,2276.00
2019-05-22T10:18:03.274Z,2072.00
2019-05-22T10:19:03.214Z,1876.00
2019-05-22T10:20:03.224Z,1900.00
2019-05-22T10:21:03.205Z,1844.00
2019-05-22T10:22:03.181Z,1936.00
2019-05-22T10:23:14.663Z,2076.00
2019-05-22T10:24:26.548Z,1972.00
2019-05-22T10:25:26.907Z,2472.00
2019-05-22T10:26:26.508Z,2476.00
2019-05-22T10:27:26.521Z,2320.00
2019-05-22T10:28:26.504Z,2376.00
2019-05-22T10:29:26.514Z,2152.00
2019-05-22T10:30:26.499Z,2028.00
2019-05-22T10:31:26.483Z,1976.00
2019-05-22T10:32:31.358Z,2016.00
2019-05-22T10:33:26.438Z,2200.00
2019-05-22T10:34:26.639Z,2304.00
2019-05-22T10:35:26.442Z,2484.00
2019-05-22T10:36:26.428Z,2468.00
2019-05-22T10:37:26.461Z,2476.00
2019-05-22T10:38:26.413Z,2412.00
2019-05-22T10:39:26.366Z,2584.00
2019-05-22T10:40:26.422Z,2704.00
2019-05-22T10:41:26.383Z,2540.00
2019-05-22T10:42:26.335Z,2632.00
2019-05-22T10:43:26.351Z,2936.00
2019-05-22T10:44:26.326Z,2992.00
2019-05-22T10:45:26.307Z,2972.00
2019-05-22T10:46:26.308Z,3212.00
2019-05-22T10:47:26.353Z,3164.00
2019-05-22T10:48:26.290Z,3012.00
2019-05-22T10:49:26.268Z,2776.00
2019-05-22T10:50:26.282Z,2536.00
2019-05-22T10:51:26.236Z,2216.00
2019-05-22T10:52:26.211Z,2036.00
2019-05-22T10:53:33.912Z,1856.00
2019-05-22T10:54:48.403Z,1872.00
2019-05-22T10:55:48.378Z,2076.00
2019-05-22T10:56:48.345Z,2204.00
2019-05-22T10:57:48.337Z,2356.00
2019-05-22T10:58:48.340Z,2312.00
2019-05-22T10:59:48.318Z,2500.00
2019-05-22T11:00:48.329Z,2468.00
2019-05-22T11:01:48.315Z,2420.00
2019-05-22T11:02:48.323Z,2312.00
2019-05-22T11:03:48.332Z,2156.00
2019-05-22T11:04:48.270Z,2324.00
2019-05-22T11:06:03.807Z,2428.00
2019-05-22T11:07:10.530Z,2360.00
2019-05-22T11:08:10.506Z,2224.00
2019-05-22T11:09:11.518Z,2072.00
2019-05-22T11:10:10.517Z,1920.00
2019-05-22T11:11:10.497Z,1972.00
2019-05-22T11:12:10.454Z,2608.00
2019-05-22T11:13:10.526Z,2712.00
2019-05-22T11:14:10.452Z,2512.00
2019-05-22T11:15:10.433Z,2364.00
2019-05-22T11:16:10.765Z,2284.00
2019-05-22T11:17:10.409Z,2088.00
2019-05-22T11:18:10.415Z,2064.00
2019-05-22T11:19:10.384Z,1924.00
2019-05-22T11:20:10.399Z,1712.00
2019-05-22T11:21:10.539Z,1752.00
2019-05-22T11:22:10.389Z,1760.00
2019-05-22T11:23:10.358Z,1812.00
2019-05-22T11:24:10.363Z,1764.00
2019-05-22T11:25:10.316Z,1596.00
2019-05-22T11:26:10.329Z,1564.00
2019-05-22T11:27:10.377Z,1488.00
2019-05-22T11:28:10.299Z,1344.00
2019-05-22T11:29:10.298Z,1320.00
2019-05-22T11:30:10.299Z,1332.00
2019-05-22T11:31:10.276Z,1276.00
2019-05-22T11:32:10.252Z,1280.00
2019-05-22T11:33:10.238Z,1296.00
2019-05-22T11:34:10.249Z,1292.00
2019-05-22T11:35:10.351Z,1320.00
2019-05-22T11:36:10.193Z,1288.00
2019-05-22T11:37:10.187Z,1172.00
2019-05-22T11:38:10.168Z,1252.00
2019-05-22T11:39:10.164Z,1320.00
2019-05-22T11:40:10.166Z,1328.00
2019-05-22T11:41:10.137Z,1352.00
2019-05-22T11:42:10.175Z,1332.00
2019-05-22T11:43:10.169Z,1300.00
2019-05-22T11:44:10.105Z,1268.00
2019-05-22T11:45:10.118Z,1208.00
2019-05-22T11:46:10.084Z,1332.00
2019-05-22T11:47:10.095Z,1120.00
2019-05-22T11:48:10.620Z,1088.00
2019-05-22T11:49:10.046Z,1124.00
2019-05-22T11:50:10.073Z,1096.00
2019-05-22T11:51:10.079Z,1308.00
2019-05-22T11:52:10.026Z,1300.00
2019-05-22T11:53:10.089Z,1292.00
2019-05-22T11:54:10.150Z,1284.00
2019-05-22T11:55:09.993Z,1276.00
2019-05-22T11:56:09.981Z,1296.00
2019-05-22T11:57:09.979Z,1296.00
2019-05-22T11:58:10.005Z,1308.00
2019-05-22T11:59:09.945Z,1336.00
2019-05-22T12:00:09.958Z,1332.00
2019-05-22T12:01:09.967Z,1316.00
2019-05-22T12:02:09.937Z,1292.00
2019-05-22T12:03:09.937Z,1284.00
2019-05-22T12:04:09.911Z,1252.00
2019-05-22T12:05:09.913Z,1268.00
2019-05-22T12:06:09.880Z,1256.00
2019-05-22T12:07:09.958Z,1244.00
2019-05-22T12:08:09.879Z,1248.00
2019-05-22T12:09:09.878Z,1252.00
2019-05-22T12:10:09.841Z,1248.00
2019-05-22T12:11:09.812Z,1236.00
2019-05-22T12:12:09.803Z,1224.00
2019-05-22T12:13:09.837Z,1256.00
2019-05-22T12:14:09.827Z,1252.00
2019-05-22T12:15:10.790Z,1288.00
2019-05-22T12:16:09.770Z,1332.00
2019-05-22T12:17:09.768Z,1380.00
2019-05-22T12:18:09.766Z,1452.00
2019-05-22T12:19:12.752Z,1628.00
2019-05-22T12:20:09.857Z,1784.00
2019-05-22T12:21:09.742Z,1580.00
2019-05-22T12:22:09.709Z,1420.00
2019-05-22T12:23:09.690Z,1408.00
2019-05-22T12:24:25.909Z,1348.00
2019-05-22T12:25:31.591Z,1344.00
2019-05-22T12:26:31.585Z,1240.00
2019-05-22T12:27:31.579Z,1380.00
2019-05-22T12:28:31.578Z,1404.00
2019-05-22T12:29:31.549Z,1348.00
2019-05-22T12:30:31.555Z,1352.00
2019-05-22T12:31:31.519Z,1388.00
2019-05-22T12:32:31.519Z,1416.00
2019-05-22T12:33:31.498Z,1448.00
2019-05-22T12:34:31.497Z,1476.00
2019-05-22T12:35:31.480Z,1408.00
2019-05-22T12:36:31.489Z,1376.00
2019-05-22T12:37:31.467Z,1388.00
2019-05-22T12:38:31.444Z,1372.00
2019-05-22T12:39:31.438Z,1340.00
2019-05-22T12:40:31.435Z,1356.00
2019-05-22T12:41:31.445Z,1344.00
2019-05-22T12:42:31.409Z,1344.00
2019-05-22T12:43:31.409Z,1172.00
2019-05-22T12:44:31.420Z,1156.00
2019-05-22T12:45:31.370Z,1208.00
2019-05-22T12:46:31.369Z,1252.00
2019-05-22T12:47:31.346Z,1296.00
2019-05-22T12:48:31.360Z,1256.00
2019-05-22T12:49:31.329Z,1248.00
2019-05-22T12:50:31.354Z,1456.00
2019-05-22T12:51:31.330Z,1520.00
2019-05-22T12:52:31.295Z,1452.00
2019-05-22T12:53:31.303Z,1616.00
2019-05-22T12:54:45.118Z,1536.00
2019-05-22T12:55:53.508Z,1620.00
2019-05-22T12:56:53.507Z,1484.00
2019-05-22T12:57:53.681Z,1556.00
2019-05-22T12:58:53.480Z,1588.00
2019-05-22T12:59:53.448Z,1400.00
2019-05-22T13:00:53.463Z,1368.00
2019-05-22T13:01:53.502Z,1448.00
2019-05-22T13:02:53.415Z,1616.00
2019-05-22T13:03:53.402Z,1676.00
2019-05-22T13:04:53.398Z,1752.00
2019-05-22T13:05:53.383Z,1668.00
2019-05-22T13:06:53.367Z,1748.00
2019-05-22T13:07:53.364Z,1700.00
2019-05-22T13:08:53.349Z,1664.00
2019-05-22T13:09:53.367Z,1636.00
2019-05-22T13:10:53.349Z,1552.00
2019-05-22T13:11:53.315Z,1604.00
2019-05-22T13:12:53.301Z,1672.00
2019-05-22T13:13:53.306Z,1724.00
2019-05-22T13:15:08.290Z,1740.00
2019-05-22T13:16:15.403Z,1624.00
2019-05-22T13:17:15.410Z,1536.00
2019-05-22T13:18:15.418Z,1624.00
2019-05-22T13:19:15.380Z,1756.00
2019-05-22T13:20:15.362Z,1604.00
2019-05-22T13:21:15.355Z,1624.00
2019-05-22T13:22:15.340Z,1652.00
2019-05-22T13:23:15.343Z,1632.00
2019-05-22T13:24:15.321Z,1588.00
2019-05-22T13:25:15.316Z,1652.00
2019-05-22T13:26:15.312Z,1844.00
2019-05-22T13:27:15.317Z,1804.00
2019-05-22T13:28:15.284Z,1792.00
2019-05-22T13:29:15.268Z,1736.00
2019-05-22T13:30:15.261Z,1748.00
2019-05-22T13:31:15.232Z,1796.00
2019-05-22T13:32:15.236Z,1800.00
2019-05-22T13:33:15.416Z,1800.00
2019-05-22T13:34:15.221Z,1824.00
2019-05-22T13:35:15.205Z,1780.00
2019-05-22T13:36:15.184Z,1668.00
2019-05-22T13:37:15.179Z,1712.00
2019-05-22T13:38:15.170Z,1728.00
2019-05-22T13:39:15.150Z,1740.00
2019-05-22T13:40:27.043Z,1876.00
2019-05-22T13:41:37.963Z,1936.00
2019-05-22T13:42:37.942Z,1736.00
2019-05-22T13:43:37.943Z,1652.00
2019-05-22T13:44:38.318Z,1792.00
2019-05-22T13:45:37.917Z,1760.00
2019-05-22T13:46:37.907Z,1788.00
2019-05-22T13:47:37.889Z,1900.00
2019-05-22T13:48:37.984Z,2120.00
2019-05-22T13:49:37.873Z,2380.00
2019-05-22T13:50:37.901Z,2584.00
2019-05-22T13:51:37.843Z,2732.00
2019-05-22T13:52:37.856Z,2768.00
2019-05-22T13:53:37.834Z,2652.00
2019-05-22T13:54:37.808Z,2572.00
2019-05-22T13:55:37.804Z,2372.00
2019-05-22T13:56:37.791Z,2208.00
2019-05-22T13:57:37.787Z,2104.00
2019-05-22T13:58:37.760Z,1896.00
2019-05-22T13:59:37.758Z,1848.00
2019-05-22T14:00:37.752Z,1820.00
2019-05-22T14:01:37.742Z,1836.00
2019-05-22T14:02:37.982Z,1868.00
2019-05-22T14:03:37.713Z,1900.00
2019-05-22T14:04:37.706Z,1948.00
2019-05-22T14:05:37.694Z,1880.00
2019-05-22T14:06:37.671Z,1808.00
2019-05-22T14:07:37.655Z,1752.00
2019-05-22T14:08:37.651Z,1772.00
2019-05-22T14:09:37.649Z,1784.00
2019-05-22T14:10:37.621Z,1804.00
2019-05-22T14:11:37.639Z,1840.00
2019-05-22T14:12:37.610Z,1768.00
2019-05-22T14:13:37.599Z,1748.00
2019-05-22T14:14:37.581Z,1904.00
2019-05-22T14:15:50.035Z,1992.00
2019-05-22T14:16:59.652Z,1728.00
2019-05-22T14:17:59.626Z,1708.00
2019-05-22T14:18:59.629Z,1732.00
2019-05-22T14:19:59.621Z,1764.00
2019-05-22T14:20:59.597Z,1796.00
2019-05-22T14:21:59.606Z,1944.00
2019-05-22T14:22:59.571Z,1652.00
2019-05-22T14:23:59.582Z,1552.00
2019-05-22T14:24:59.552Z,1524.00
2019-05-22T14:25:59.558Z,1504.00
2019-05-22T14:26:59.536Z,1488.00
2019-05-22T14:27:59.527Z,1528.00
2019-05-22T14:29:00.525Z,1716.00
2019-05-22T14:29:59.496Z,1676.00
2019-05-22T14:30:59.475Z,1616.00
2019-05-22T14:31:59.574Z,1552.00
2019-05-22T14:33:03.833Z,1500.00
2019-05-22T14:33:59.449Z,1224.00
2019-05-22T14:34:59.445Z,1292.00
2019-05-22T14:35:59.429Z,1408.00
2019-05-22T14:36:59.432Z,1420.00
2019-05-22T14:37:59.413Z,1420.00
2019-05-22T14:38:59.395Z,1412.00
2019-05-22T14:39:59.391Z,1400.00
2019-05-22T14:40:59.387Z,1372.00
2019-05-22T14:41:59.369Z,1352.00
2019-05-22T14:42:59.365Z,1336.00
2019-05-22T14:43:59.408Z,1080.00
2019-05-22T14:44:59.340Z,1100.00
2019-05-22T14:45:59.320Z,1080.00
2019-05-22T14:47:12.416Z,1328.00
2019-05-22T14:48:21.336Z,1224.00
2019-05-22T14:49:21.322Z,1312.00
2019-05-22T14:50:21.315Z,1288.00
2019-05-22T14:51:21.298Z,1312.00
2019-05-22T14:52:21.283Z,1360.00
2019-05-22T14:53:21.270Z,1376.00
2019-05-22T14:54:21.255Z,1376.00
2019-05-22T14:55:21.264Z,1368.00
2019-05-22T14:56:21.281Z,1384.00
2019-05-22T14:57:21.224Z,1392.00
2019-05-22T14:58:21.220Z,1416.00
2019-05-22T14:59:21.197Z,1460.00
2019-05-22T15:15:01.597Z,1660.00
2019-05-22T15:16:01.568Z,1744.00
2019-05-22T15:17:01.541Z,1720.00
2019-05-22T15:18:01.539Z,1664.00
2019-05-22T15:19:02.918Z,1512.00
2019-05-22T15:20:01.569Z,1576.00
2019-05-22T15:21:01.561Z,1600.00
2019-05-22T15:22:01.481Z,1608.00
2019-05-22T15:23:01.484Z,1640.00
2019-05-22T15:24:01.455Z,1688.00
2019-05-22T15:25:01.454Z,1748.00
2019-05-22T15:26:01.424Z,1832.00
2019-05-22T15:27:01.427Z,1928.00
2019-05-22T15:28:01.424Z,1904.00
2019-05-22T15:29:01.465Z,2024.00
2019-05-22T15:30:01.433Z,2132.00
2019-05-22T15:31:01.380Z,2108.00
2019-05-22T15:32:01.373Z,2088.00
2019-05-22T15:33:01.375Z,2200.00
2019-05-22T15:34:01.342Z,2304.00
2019-05-22T15:35:01.355Z,2264.00
2019-05-22T15:36:01.335Z,2232.00
2019-05-22T15:37:01.301Z,2328.00
2019-05-22T15:38:01.299Z,2540.00
2019-05-22T15:39:01.297Z,2608.00
2019-05-22T15:40:01.278Z,2444.00
2019-05-22T15:41:01.268Z,2180.00
2019-05-22T15:42:01.264Z,1980.00
2019-05-22T15:43:01.254Z,1828.00
2019-05-22T15:44:01.239Z,1704.00
2019-05-22T15:45:01.222Z,1580.00
2019-05-22T15:46:01.215Z,1476.00
2019-05-22T15:47:01.203Z,1436.00
2019-05-22T15:48:01.186Z,1408.00
2019-05-22T15:49:01.180Z,1388.00
2019-05-22T15:50:01.166Z,1312.00
2019-05-22T15:51:01.164Z,1320.00
2019-05-22T15:52:01.211Z,1292.00
2019-05-22T15:53:04.016Z,1268.00
2019-05-22T15:54:01.121Z,1264.00
2019-05-22T15:55:01.112Z,1268.00
2019-05-22T15:56:01.106Z,1276.00
2019-05-22T15:57:01.096Z,1284.00
2019-05-22T15:58:01.108Z,1292.00
2019-05-22T15:59:01.066Z,1328.00
2019-05-22T16:00:01.050Z,1384.00
2019-05-22T16:01:01.054Z,1464.00
2019-05-22T16:02:01.032Z,1444.00
2019-05-22T16:03:01.034Z,1376.00
2019-05-22T16:04:01.022Z,1288.00
2019-05-22T16:05:01.035Z,1224.00
2019-05-22T16:06:00.990Z,1180.00
2019-05-22T16:07:00.974Z,1228.00
2019-05-22T16:08:00.964Z,1312.00
2019-05-22T16:09:00.958Z,1336.00
2019-05-22T16:10:00.993Z,1280.00
2019-05-22T16:11:00.948Z,1244.00
2019-05-22T16:12:00.927Z,1224.00
2019-05-22T16:13:00.906Z,1196.00
2019-05-22T16:14:00.938Z,1184.00
2019-05-22T16:15:00.916Z,1180.00
2019-05-22T16:16:00.876Z,1164.00
2019-05-22T16:17:00.871Z,1156.00
2019-05-22T16:18:11.038Z,1148.00
2019-05-22T16:19:22.437Z,1116.00
2019-05-22T16:20:22.427Z,1084.00
2019-05-22T16:21:22.424Z,1080.00
2019-05-22T16:22:22.414Z,1072.00
2019-05-22T16:23:22.388Z,1080.00
2019-05-22T16:24:22.385Z,1092.00
2019-05-22T16:25:22.367Z,1104.00
2019-05-22T16:26:22.381Z,1132.00
2019-05-22T16:27:22.357Z,1164.00
2019-05-22T16:28:22.338Z,1188.00
2019-05-22T16:29:22.317Z,1192.00
2019-05-22T16:30:22.305Z,1188.00
2019-05-22T16:31:22.290Z,1200.00
2019-05-22T16:32:22.332Z,1192.00
2019-05-22T16:33:22.275Z,1188.00
2019-05-22T16:34:22.262Z,1180.00
2019-05-22T16:35:22.246Z,1144.00
2019-05-22T16:36:22.238Z,1196.00
2019-05-22T16:37:22.224Z,1204.00
2019-05-22T16:38:22.238Z,1204.00
2019-05-22T16:39:22.215Z,1152.00
2019-05-22T16:40:22.226Z,1100.00
2019-05-22T16:41:22.180Z,1076.00
2019-05-22T16:42:22.180Z,1084.00
2019-05-22T16:43:22.166Z,1080.00
2019-05-22T16:44:22.164Z,1068.00
2019-05-22T16:45:22.170Z,1068.00
2019-05-22T16:46:22.138Z,1072.00
2019-05-22T16:47:22.126Z,1044.00
2019-05-22T16:48:28.940Z,1036.00
2019-05-22T16:49:43.580Z,1036.00
2019-05-22T16:50:43.558Z,1068.00
2019-05-22T16:51:43.550Z,1076.00
2019-05-22T16:52:43.538Z,1072.00
2019-05-22T16:53:43.653Z,1060.00
2019-05-22T16:54:43.525Z,1036.00
2019-05-22T16:55:43.524Z,968.00
2019-05-22T16:56:43.508Z,964.00
2019-05-22T16:57:43.487Z,964.00
2019-05-22T16:58:43.479Z,964.00
2019-05-22T16:59:43.471Z,1004.00
2019-05-22T17:00:43.468Z,1020.00
2019-05-22T17:01:57.446Z,1020.00
2019-05-22T17:03:05.476Z,1016.00
2019-05-22T17:04:05.499Z,1008.00
2019-05-22T17:05:05.422Z,1000.00
2019-05-22T17:06:05.416Z,1012.00
2019-05-22T17:07:05.417Z,1012.00
2019-05-22T17:08:05.395Z,1020.00
2019-05-22T17:09:05.397Z,1020.00
2019-05-22T17:10:05.370Z,1020.00
2019-05-22T17:11:05.386Z,1008.00
2019-05-22T17:12:08.367Z,1000.00
2019-05-22T17:13:05.340Z,992.00
2019-05-22T17:14:05.338Z,984.00
2019-05-22T17:15:05.338Z,980.00
2019-05-22T17:16:05.309Z,992.00
2019-05-22T17:17:05.298Z,988.00
2019-05-22T17:18:05.296Z,972.00
2019-05-22T17:19:25.245Z,952.00
2019-05-22T17:20:27.410Z,924.00
2019-05-22T17:21:27.386Z,916.00
2019-05-22T17:22:27.364Z,908.00
2019-05-22T17:23:27.409Z,900.00
2019-05-22T17:24:27.358Z,892.00
2019-05-22T17:25:27.341Z,884.00
2019-05-22T17:26:27.361Z,876.00
2019-05-22T17:27:27.316Z,868.00
2019-05-22T17:28:27.344Z,860.00
2019-05-22T17:29:27.426Z,852.00
2019-05-22T17:30:27.299Z,844.00
2019-05-22T17:31:27.283Z,836.00